Time,TemperatureF,DewpointF,PressureIn,WindDirection,WindDirectionDegrees,WindSpeedMPH,WindSpeedGustMPH,Humidity,HourlyPrecipIn,Conditions,Clouds,dailyrainin,SoftwareType,DateUTC
2013-10-06 00:24:00,71.0,71.0,-100.00,South,185,5.0,7.0,99,-99.99,,,-99.99,,2013-10-06 04:24:00,
2013-10-06 00:54:00,71.0,71.0,-100.00,South,175,6.0,9.0,99,-99.99,,,-99.99,,2013-10-06 04:54:00,
2013-10-06 01:22:00,70.0,70.0,-100.00,SSW,195,6.0,9.0,99,-99.99,,,-99.99,,2013-10-06 05:22:00,
2013-10-06 01:52:00,70.0,70.0,-100.00,SW,220,2.0,7.0,99,-99.99,,,-99.99,,2013-10-06 05:52:00,
2013-10-06 02:22:00,70.0,70.0,-100.00,South,190,6.0,12.0,99,-99.99,,,-99.99,,2013-10-06 06:22:00,
2013-10-06 02:52:00,70.0,70.0,-100.00,SSW,200,8.0,15.0,99,-99.99,,,-99.99,,2013-10-06 06:52:00,
2013-10-06 03:22:00,70.0,70.0,-100.00,SSW,200,9.0,14.0,99,-99.99,,,-99.99,,2013-10-06 07:22:00,
2013-10-06 03:52:00,70.0,70.0,-100.00,SSW,205,9.0,15.0,99,-99.99,,,-99.99,,2013-10-06 07:52:00,
2013-10-06 04:22:00,69.0,69.0,-100.00,SSW,205,6.0,14.0,99,-99.99,,,-99.99,,2013-10-06 08:22:00,
2013-10-06 04:32:00,69.0,69.0,-100.00,SSW,205,6.0,14.0,99,-99.99,,,-99.99,,2013-10-06 08:32:00,
2013-10-06 04:52:00,69.0,69.0,-100.00,SW,215,9.0,16.0,99,-99.99,,,-99.99,,2013-10-06 08:52:00,
2013-10-06 05:22:00,69.0,69.0,-100.00,SSW,200,5.0,14.0,99,-99.99,,,-99.99,,2013-10-06 09:22:00,
2013-10-06 05:53:00,69.0,69.0,-100.00,SW,230,9.0,12.0,99,-99.99,,,-99.99,,2013-10-06 09:53:00,
2013-10-06 06:23:00,69.0,69.0,-100.00,SSW,195,9.0,13.0,99,-99.99,,,-99.99,,2013-10-06 10:23:00,
2013-10-06 06:43:00,69.0,69.0,-100.00,SW,225,5.0,9.0,99,-99.99,,,-99.99,,2013-10-06 10:43:00,
2013-10-06 06:53:00,69.0,69.0,-100.00,SW,225,5.0,9.0,99,-99.99,,,-99.99,,2013-10-06 10:53:00,
2013-10-06 07:21:00,68.0,68.0,-100.00,SSW,195,7.0,12.0,100,-99.99,,,-99.99,,2013-10-06 11:21:00,
2013-10-06 07:42:00,68.0,68.0,-100.00,SSW,195,10.0,14.0,99,-99.99,,,-99.99,,2013-10-06 11:42:00,
2013-10-06 07:52:00,68.0,68.0,-100.00,SSW,195,10.0,16.0,100,-99.99,,,-99.99,,2013-10-06 11:52:00,
2013-10-06 08:22:00,67.0,67.0,-100.00,South,185,8.0,14.0,99,-99.99,,,-99.99,,2013-10-06 12:22:00,
2013-10-06 08:52:00,67.0,67.0,-100.00,South,190,9.0,16.0,99,-99.99,,,-99.99,,2013-10-06 12:52:00,
2013-10-06 09:21:00,67.0,67.0,-100.00,South,190,8.0,13.0,99,-99.99,,,-99.99,,2013-10-06 13:21:00,
2013-10-06 09:52:00,67.0,67.0,-100.00,SSW,200,6.0,9.0,99,-99.99,,,-99.99,,2013-10-06 13:52:00,
2013-10-06 10:22:00,68.0,68.0,-100.00,SSW,195,7.0,11.0,99,-99.99,,,-99.99,,2013-10-06 14:22:00,
2013-10-06 10:52:00,68.0,68.0,-100.00,SSW,195,7.0,10.0,99,-99.99,,,-99.99,,2013-10-06 14:52:00,
2013-10-06 11:22:00,68.0,68.0,-100.00,SSW,195,9.0,16.0,99,-99.99,,,-99.99,,2013-10-06 15:22:00,
2013-10-06 11:54:00,68.0,68.0,-100.00,SSW,195,8.0,16.0,99,-99.99,,,-99.99,,2013-10-06 15:54:00,
2013-10-06 12:23:00,68.0,68.0,-100.00,SSW,210,11.0,17.0,99,-99.99,,,-99.99,,2013-10-06 16:23:00,
2013-10-06 12:33:00,68.0,68.0,-100.00,SSW,210,11.0,17.0,99,-99.99,,,-99.99,,2013-10-06 16:33:00,
2013-10-06 12:42:00,68.0,68.0,-100.00,SSW,210,11.0,17.0,99,-99.99,,,-99.99,,2013-10-06 16:42:00,
2013-10-06 12:53:00,68.0,68.0,-100.00,SSW,205,9.0,15.0,99,-99.99,,,-99.99,,2013-10-06 16:53:00,
2013-10-06 13:22:00,68.0,68.0,-100.00,SW,225,7.0,11.0,99,-99.99,,,-99.99,,2013-10-06 17:22:00,
2013-10-06 13:52:00,69.0,69.0,-100.00,SSW,200,9.0,13.0,99,-99.99,,,-99.99,,2013-10-06 17:52:00,
2013-10-06 14:22:00,70.0,69.0,-100.00,SSE,160,8.0,11.0,97,-99.99,,,-99.99,,2013-10-06 18:22:00,
2013-10-06 14:52:00,72.0,69.0,-100.00,SSW,200,10.0,19.0,92,-99.99,,,-99.99,,2013-10-06 18:52:00,
2013-10-06 15:22:00,72.0,70.0,-100.00,SSW,195,11.0,17.0,92,-99.99,,,-99.99,,2013-10-06 19:22:00,
2013-10-06 15:32:00,72.0,70.0,-100.00,SSW,195,11.0,17.0,92,-99.99,,,-99.99,,2013-10-06 19:32:00,
2013-10-06 15:52:00,73.0,70.0,-100.00,SSW,195,9.0,17.0,88,-99.99,,,-99.99,,2013-10-06 19:52:00,
2013-10-06 16:22:00,74.0,70.0,-100.00,SSW,205,10.0,15.0,86,-99.99,,,-99.99,,2013-10-06 20:22:00,
2013-10-06 16:52:00,73.0,69.0,-100.00,SSW,210,11.0,16.0,86,-99.99,,,-99.99,,2013-10-06 20:52:00,
2013-10-06 17:22:00,70.0,69.0,-100.00,WSW,255,5.0,11.0,96,-99.99,,,-99.99,,2013-10-06 21:22:00,
2013-10-06 17:54:00,64.0,63.0,-100.00,West,265,7.0,17.0,98,-99.99,,,-99.99,,2013-10-06 21:54:00,
2013-10-06 18:04:00,64.0,63.0,-100.00,West,265,7.0,17.0,98,-99.99,,,-99.99,,2013-10-06 22:04:00,
2013-10-06 18:24:00,63.0,63.0,-100.00,West,280,7.0,13.0,99,-99.99,,,-99.99,,2013-10-06 22:24:00,
2013-10-06 18:53:00,62.0,62.0,-100.00,West,265,6.0,11.0,100,-99.99,,,-99.99,,2013-10-06 22:53:00,
2013-10-06 19:22:00,61.0,61.0,-100.00,West,265,7.0,16.0,99,-99.99,,,-99.99,,2013-10-06 23:22:00,
2013-10-06 19:53:00,60.0,60.0,-100.00,WSW,255,9.0,16.0,99,-99.99,,,-99.99,,2013-10-06 23:53:00,
2013-10-06 20:22:00,59.0,59.0,-100.00,West,275,4.0,16.0,99,-99.99,,,-99.99,,2013-10-07 00:22:00,
2013-10-06 20:52:00,57.0,56.0,-100.00,West,270,6.0,9.0,98,-99.99,,,-99.99,,2013-10-07 00:52:00,
2013-10-06 21:22:00,58.0,57.0,-100.00,West,260,5.0,9.0,98,-99.99,,,-99.99,,2013-10-07 01:22:00,
2013-10-06 21:53:00,57.0,57.0,-100.00,SSW,210,2.0,7.0,98,-99.99,,,-99.99,,2013-10-07 01:53:00,
2013-10-06 22:22:00,57.0,57.0,-100.00,WSW,240,3.0,8.0,98,-99.99,,,-99.99,,2013-10-07 02:22:00,
2013-10-06 22:53:00,57.0,56.0,-100.00,SW,220,3.0,6.0,98,-99.99,,,-99.99,,2013-10-07 02:53:00,
2013-10-06 23:22:00,57.0,56.0,-100.00,SW,230,2.0,6.0,98,-99.99,,,-99.99,,2013-10-07 03:22:00,
2013-10-06 23:54:00,56.0,56.0,-100.00,WSW,240,2.0,6.0,98,-99.99,,,-99.99,,2013-10-07 03:54:00,